Česky Dansk Deutsch English Español Suomi Français Magyar Italiano Nederlands norsk Polski Português svenska Türkçe

 

Het Weer

Tabuk (Saudi-Arabië)

20:00, 14 augustus 2016 (GMT)

NWNNE
WE
SWSSE
Home            
Tabuk Eilat Aqaba Airport Ma'An Sharm El Sheikhintl Taba Wejh Ovda Hurguada Guriat Beer-Sheva Queen Alia Airport Al-Jouf El Tor El Arish Amman Airport Jerusalem Airport Turaif H-5'Safawi Ben-Gurion International Airport Mafraq Tel Aviv / Sde-Dov Airport Irbid

Om een weerknop op uw website of weblog te plaatsen, copieer onderstaande code en plak die in uw pagina. In het eerste vakje staat HTML-code, in het tweede vakje UBB-code.


Add to Google

Details

Wind speed:4 bf, 14 kn, 7.2 m/s, 16.1 miles/h, 25.9 km/h
Wind direction:NNW, 340°
Visibility:Greater than 10000 m, 10 km, 32800 ft, 6.2 miles
Clouds:Aufgelockert bewölkt at 4000 ft, 1219 m
Temperature:33°C, 91°F
Gefühlte Temperatur:31°C, 87°F
Dew-point:5°C, 41°F
Atmospheric pressure:1012 hPa, 759.1 mmHg, 29.88 inHg, 0.999 atm
Relative humidity:17.3 %
METAR:OETB 142000Z 34014KT 9999 SCT040 33/05 Q1012 NOSIG

Snelkoppelingen

Actuele weersinformatie van de hele wereld. Voeg locaties toe met het plus (+) symbool. Deze snelkoppelingen kunnen worden toegevoegd aan Google.

Lid van de Technetium groep

website free tracking
StatCounter NetStat W3C Validator

17-12-2017 04:47:56
astro.technetium.be money.technetium.be phote.technetium.be tafeltennistafel.technetium.be www.ligfiets.net